Boldon, United Kingdom
Current Conditions -  °F | °C
As of 8:20 AM on Thursday 27 Nov 2014 (Local Time) from EGNT Reporting Station
Moderate Fog Moderate Fog  
Wind Chill: 45°   Ceiling: 200
Heat Index: 45°   Visibility: 0.56mi
Dew Point: 45°   Wind: 3mph
Humidity: 100%   Direction: 350°N
Pressure: 29.62"   Gusts: NA
Location:  54.94°N, 1.45°W
Report Text: EGNT 270820Z 35003KT 0900 FG BKN002 BKN007 07/07 Q1003
Loading
Personal Weather Stations






























Interactive Weather Map New forecast layout! Learn more

10-Day Weather Forecast

Advertisements
Track Severe Weather on mobile